createdAt,value
2018-05-12T00:01:31.328Z,13.30
2018-05-12T00:03:57.606Z,13.40
2018-05-12T00:06:30.264Z,13.40
2018-05-12T00:08:56.534Z,13.30
2018-05-12T00:11:22.613Z,13.30
2018-05-12T00:13:49.439Z,13.30
2018-05-12T00:16:16.402Z,13.30
2018-05-12T00:18:46.971Z,13.30
2018-05-12T00:21:14.085Z,13.20
2018-05-12T00:23:40.886Z,13.20
2018-05-12T00:26:07.096Z,14.30
2018-05-12T00:28:38.604Z,13.20
2018-05-12T00:31:06.811Z,13.20
2018-05-12T00:33:33.004Z,13.10
2018-05-12T00:36:01.205Z,13.10
2018-05-12T00:38:27.316Z,13.00
2018-05-12T00:40:53.480Z,13.10
2018-05-12T00:43:20.509Z,13.10
2018-05-12T00:45:50.285Z,13.00
2018-05-12T00:48:18.099Z,12.90
2018-05-12T00:50:45.175Z,12.80
2018-05-12T00:53:13.204Z,12.90
2018-05-12T00:55:39.433Z,12.90
2018-05-12T00:58:05.511Z,12.80
2018-05-12T01:00:33.388Z,12.70
2018-05-12T01:03:00.248Z,12.70
2018-05-12T01:05:26.356Z,12.70
2018-05-12T01:07:53.317Z,12.70
2018-05-12T01:10:20.191Z,12.70
2018-05-12T01:12:46.426Z,12.70
2018-05-12T01:15:14.536Z,12.40
2018-05-12T01:17:40.617Z,12.60
2018-05-12T01:20:06.747Z,12.60
2018-05-12T01:22:32.834Z,12.60
2018-05-12T01:25:02.989Z,12.60
2018-05-12T01:27:29.106Z,12.50
2018-05-12T01:29:55.142Z,12.60
2018-05-12T01:32:21.281Z,12.80
2018-05-12T01:34:47.345Z,12.50
2018-05-12T01:37:14.227Z,12.50
2018-05-12T01:39:40.290Z,12.50
2018-05-12T01:42:06.369Z,12.50
2018-05-12T01:44:33.518Z,12.50
2018-05-12T01:46:59.697Z,12.50
2018-05-12T01:49:25.879Z,12.50
2018-05-12T01:51:51.978Z,12.50
2018-05-12T01:54:22.243Z,12.50
2018-05-12T01:56:48.341Z,12.40
2018-05-12T01:59:14.505Z,12.50
2018-05-12T02:01:42.593Z,12.50
2018-05-12T02:04:08.707Z,12.50
2018-05-12T02:06:34.833Z,12.50
2018-05-12T02:09:01.999Z,12.50
2018-05-12T02:11:30.424Z,12.50
2018-05-12T02:13:56.500Z,12.50
2018-05-12T02:16:22.551Z,12.50
2018-05-12T02:18:48.725Z,12.50
2018-05-12T02:21:14.835Z,12.50
2018-05-12T02:23:45.347Z,12.70
2018-05-12T02:26:12.260Z,12.60
2018-05-12T02:28:39.194Z,12.60
2018-05-12T02:31:05.301Z,12.60
2018-05-12T02:33:32.470Z,12.60
2018-05-12T02:35:58.486Z,12.60
2018-05-12T02:38:24.572Z,12.90
2018-05-12T02:40:53.317Z,12.50
2018-05-12T02:43:21.497Z,12.50
2018-05-12T02:45:47.648Z,12.50
2018-05-12T02:48:14.557Z,12.60
2018-05-12T02:50:40.622Z,12.60
2018-05-12T02:53:08.896Z,12.60
2018-05-12T02:55:35.774Z,12.50
2018-05-12T02:58:07.954Z,12.60
2018-05-12T03:00:34.764Z,12.60
2018-05-12T03:03:00.882Z,12.60
2018-05-12T03:05:35.344Z,12.60
2018-05-12T03:08:02.156Z,12.60
2018-05-12T03:10:29.996Z,12.60
2018-05-12T03:12:57.067Z,12.60
2018-05-12T03:15:23.343Z,12.60
2018-05-12T03:17:50.533Z,12.60
2018-05-12T03:20:17.341Z,12.50
2018-05-12T03:22:44.425Z,12.60
2018-05-12T03:25:11.229Z,12.60
2018-05-12T03:27:37.322Z,12.30
2018-05-12T03:30:03.386Z,12.60
2018-05-12T03:32:30.501Z,12.50
2018-05-12T03:34:56.588Z,12.50
2018-05-12T03:37:23.672Z,12.60
2018-05-12T03:39:49.723Z,12.50
2018-05-12T03:42:16.773Z,12.50
2018-05-12T03:44:43.829Z,12.60
2018-05-12T03:47:09.936Z,12.60
2018-05-12T03:49:35.993Z,12.60
2018-05-12T03:52:03.131Z,13.70
2018-05-12T03:54:29.215Z,12.60
2018-05-12T03:56:59.036Z,12.60
2018-05-12T03:59:25.085Z,12.60
2018-05-12T04:01:52.166Z,12.60
2018-05-12T04:04:31.544Z,12.60
2018-05-12T04:07:10.179Z,12.60
2018-05-12T04:09:49.643Z,12.60
2018-05-12T04:12:29.247Z,12.70
2018-05-12T04:14:55.294Z,12.60
2018-05-12T04:17:22.440Z,12.60
2018-05-12T04:19:48.623Z,12.70
2018-05-12T04:22:16.577Z,12.70
2018-05-12T04:24:42.645Z,12.60
2018-05-12T04:27:08.723Z,12.60
2018-05-12T04:29:34.772Z,12.70
2018-05-12T04:32:00.923Z,12.70
2018-05-12T04:34:26.959Z,12.70
2018-05-12T04:36:53.004Z,12.50
2018-05-12T04:39:19.078Z,12.80
2018-05-12T04:41:45.238Z,12.80
2018-05-12T04:44:12.285Z,13.20
2018-05-12T04:46:38.348Z,12.80
2018-05-12T04:49:04.496Z,12.90
2018-05-12T04:51:31.411Z,13.00
2018-05-12T04:54:01.004Z,13.00
2018-05-12T04:56:27.076Z,13.00
2018-05-12T04:58:56.177Z,13.10
2018-05-12T05:01:23.004Z,13.10
2018-05-12T05:03:49.797Z,13.20
2018-05-12T05:06:15.885Z,14.00
2018-05-12T05:08:42.675Z,13.20
2018-05-12T05:11:08.753Z,13.10
2018-05-12T05:13:35.565Z,13.30
2018-05-12T05:16:01.657Z,13.20
2018-05-12T05:18:28.803Z,13.30
2018-05-12T05:20:54.957Z,13.30
2018-05-12T05:23:21.013Z,13.40
2018-05-12T05:25:49.811Z,13.60
2018-05-12T05:28:16.608Z,13.60
2018-05-12T05:30:42.803Z,13.70
2018-05-12T05:33:09.057Z,13.70
2018-05-12T05:35:36.110Z,13.80
2018-05-12T05:38:02.161Z,13.90
2018-05-12T05:40:28.235Z,13.90
2018-05-12T05:42:54.269Z,13.60
2018-05-12T05:45:20.336Z,14.00
2018-05-12T05:47:46.500Z,14.00
2018-05-12T05:50:12.691Z,14.00
2018-05-12T05:52:38.672Z,14.00
2018-05-12T05:55:04.923Z,14.30
2018-05-12T05:57:30.996Z,14.10
2018-05-12T06:00:00.815Z,14.10
2018-05-12T06:02:27.600Z,14.10
2018-05-12T06:04:53.641Z,14.10
2018-05-12T06:07:19.822Z,14.20
2018-05-12T06:09:45.868Z,14.30
2018-05-12T06:12:11.978Z,14.30
2018-05-12T06:14:38.092Z,14.20
2018-05-12T06:17:07.251Z,14.30
2018-05-12T06:19:33.545Z,14.40
2018-05-12T06:22:00.683Z,14.40
2018-05-12T06:24:28.768Z,14.50
2018-05-12T06:26:54.852Z,14.50
2018-05-12T06:29:20.933Z,14.50
2018-05-12T06:31:48.112Z,14.70
2018-05-12T06:34:15.107Z,14.60
2018-05-12T06:36:41.191Z,14.60
2018-05-12T06:39:10.141Z,14.90
2018-05-12T06:41:37.251Z,14.90
2018-05-12T06:44:03.451Z,15.10
2018-05-12T06:46:29.614Z,15.20
2018-05-12T06:48:56.693Z,15.40
2018-05-12T06:51:22.804Z,15.40
2018-05-12T06:53:49.912Z,15.30
2018-05-12T06:56:20.871Z,15.40
2018-05-12T06:58:47.959Z,15.50
2018-05-12T07:01:14.999Z,15.60
2018-05-12T07:03:43.226Z,15.80
2018-05-12T07:06:09.305Z,15.90
2018-05-12T07:08:36.369Z,16.00
2018-05-12T07:11:02.545Z,15.90
2018-05-12T07:13:28.735Z,15.90
2018-05-12T07:15:56.824Z,15.90
2018-05-12T07:18:24.676Z,16.20
2018-05-12T07:20:52.067Z,16.10
2018-05-12T07:23:18.204Z,16.30
2018-05-12T07:25:45.718Z,16.40
2018-05-12T07:28:11.889Z,16.60
2018-05-12T07:30:38.046Z,16.80
2018-05-12T07:33:04.221Z,16.90
2018-05-12T07:35:31.370Z,16.80
2018-05-12T07:38:04.506Z,16.90
2018-05-12T07:40:37.000Z,16.90
2018-05-12T07:43:03.062Z,17.00
2018-05-12T07:45:31.002Z,17.00
2018-05-12T07:47:59.139Z,17.00
2018-05-12T07:50:26.226Z,17.00
2018-05-12T07:52:52.397Z,17.00
2018-05-12T07:55:19.714Z,17.00
2018-05-12T07:57:45.915Z,17.10
2018-05-12T08:00:12.004Z,17.20
2018-05-12T08:02:43.885Z,17.20
2018-05-12T08:05:09.996Z,17.20
2018-05-12T08:07:36.049Z,17.40
2018-05-12T08:10:08.408Z,17.60
2018-05-12T08:12:35.566Z,17.70
2018-05-12T08:15:02.434Z,18.20
2018-05-12T08:17:28.653Z,18.20
2018-05-12T08:19:54.703Z,18.70
2018-05-12T08:22:21.503Z,21.00
2018-05-12T08:24:47.618Z,21.00
2018-05-12T08:27:13.736Z,21.10
2018-05-12T08:29:39.820Z,21.60
2018-05-12T08:32:10.804Z,22.00
2018-05-12T08:34:36.932Z,22.00
2018-05-12T08:37:03.080Z,22.40
2018-05-12T08:39:29.218Z,22.30
2018-05-12T08:41:58.665Z,22.00
2018-05-12T08:44:24.726Z,22.60
2018-05-12T08:46:50.856Z,22.60
2018-05-12T08:49:16.928Z,22.30
2018-05-12T08:51:46.249Z,22.60
2018-05-12T08:54:14.107Z,22.60
2018-05-12T08:56:40.879Z,22.90
2018-05-12T08:59:10.557Z,22.90
2018-05-12T09:01:37.333Z,22.20
2018-05-12T09:04:03.452Z,22.20
2018-05-12T09:06:30.532Z,23.10
2018-05-12T09:08:56.590Z,23.60
2018-05-12T09:11:23.441Z,23.50
2018-05-12T09:13:52.405Z,23.40
2018-05-12T09:16:18.585Z,23.30
2018-05-12T09:18:45.664Z,22.60
2018-05-12T09:21:12.743Z,22.30
2018-05-12T09:23:38.829Z,21.80
2018-05-12T09:26:04.985Z,21.90
2018-05-12T09:28:32.143Z,22.40
2018-05-12T09:30:58.308Z,23.60
2018-05-12T09:33:27.319Z,23.70
2018-05-12T09:35:53.463Z,23.40
2018-05-12T09:38:20.607Z,22.70
2018-05-12T09:40:46.728Z,23.00
2018-05-12T09:43:12.887Z,22.80
2018-05-12T09:45:39.559Z,23.30
2018-05-12T09:48:05.708Z,23.50
2018-05-12T09:50:32.731Z,23.20
2018-05-12T09:52:59.320Z,23.30
2018-05-12T09:55:25.414Z,23.50
2018-05-12T09:57:51.489Z,23.40
2018-05-12T10:00:17.624Z,23.90
2018-05-12T10:02:45.716Z,23.20
2018-05-12T10:05:13.030Z,23.70
2018-05-12T10:07:44.340Z,23.70
2018-05-12T10:10:10.499Z,24.20
2018-05-12T10:12:37.608Z,24.10
2018-05-12T10:15:03.671Z,24.20
2018-05-12T10:17:30.752Z,24.10
2018-05-12T10:19:56.842Z,24.60
2018-05-12T10:22:24.026Z,24.60
2018-05-12T10:24:50.079Z,24.50
2018-05-12T10:27:16.893Z,25.40
2018-05-12T10:29:43.759Z,25.80
2018-05-12T10:32:10.628Z,25.60
2018-05-12T10:34:36.781Z,25.60
2018-05-12T10:37:03.933Z,25.20
2018-05-12T10:39:29.989Z,24.20
2018-05-12T10:41:56.814Z,23.80
2018-05-12T10:44:22.855Z,23.80
2018-05-12T10:46:49.922Z,25.10
2018-05-12T10:49:16.782Z,26.60
2018-05-12T10:51:42.850Z,26.50
2018-05-12T10:54:08.897Z,26.10
2018-05-12T10:56:35.003Z,26.10
2018-05-12T10:59:03.044Z,26.90
2018-05-12T11:01:29.137Z,26.20
2018-05-12T11:03:56.071Z,24.10
2018-05-12T11:06:22.872Z,24.10
2018-05-12T11:08:48.972Z,24.00
2018-05-12T11:11:15.077Z,24.70
2018-05-12T11:13:41.987Z,25.30
2018-05-12T11:16:09.242Z,25.30
2018-05-12T11:18:35.324Z,26.00
2018-05-12T11:21:02.162Z,26.60
2018-05-12T11:23:28.289Z,26.60
2018-05-12T11:25:54.368Z,26.20
2018-05-12T11:28:22.445Z,25.80
2018-05-12T11:30:51.944Z,25.70
2018-05-12T11:33:18.040Z,25.80
2018-05-12T11:35:47.218Z,26.60
2018-05-12T11:38:13.328Z,26.40
2018-05-12T11:40:40.457Z,25.80
2018-05-12T11:43:08.588Z,26.40
2018-05-12T11:45:34.754Z,26.00
2018-05-12T11:48:01.720Z,25.90
2018-05-12T11:50:32.070Z,25.40
2018-05-12T11:52:58.560Z,25.40
2018-05-12T11:55:25.445Z,25.60
2018-05-12T11:57:51.582Z,25.70
2018-05-12T12:00:17.665Z,26.10
2018-05-12T12:02:44.646Z,27.30
2018-05-12T12:05:10.712Z,27.30
2018-05-12T12:07:36.789Z,26.20
2018-05-12T12:10:03.877Z,25.50
2018-05-12T12:12:29.958Z,26.20
2018-05-12T12:14:58.081Z,26.00
2018-05-12T12:17:24.176Z,25.40
2018-05-12T12:19:50.285Z,26.30
2018-05-12T12:22:16.338Z,27.10
2018-05-12T12:24:44.528Z,27.10
2018-05-12T12:27:10.600Z,27.00
2018-05-12T12:29:37.557Z,27.00
2018-05-12T12:32:03.661Z,26.90
2018-05-12T12:34:31.564Z,25.80
2018-05-12T12:37:01.678Z,25.80
2018-05-12T12:39:27.785Z,24.90
2018-05-12T12:41:54.947Z,25.30
2018-05-12T12:44:21.013Z,25.60
2018-05-12T12:46:47.072Z,25.30
2018-05-12T12:49:13.910Z,26.20
2018-05-12T12:51:41.735Z,26.00
2018-05-12T12:54:07.791Z,26.00
2018-05-12T12:56:34.987Z,25.20
2018-05-12T12:59:02.200Z,24.80
2018-05-12T13:01:30.012Z,25.10
2018-05-12T13:03:56.142Z,24.90
2018-05-12T13:06:22.248Z,24.60
2018-05-12T13:08:50.306Z,24.40
2018-05-12T13:11:18.242Z,25.20
2018-05-12T13:13:44.720Z,25.20
2018-05-12T13:16:12.207Z,25.20
2018-05-12T13:18:38.336Z,25.20
2018-05-12T13:21:04.429Z,25.30
2018-05-12T13:23:32.219Z,25.60
2018-05-12T13:25:59.061Z,25.40
2018-05-12T13:28:25.880Z,24.80
2018-05-12T13:30:52.831Z,24.90
2018-05-12T13:33:18.933Z,24.90
2018-05-12T13:35:46.064Z,25.40
2018-05-12T13:38:12.136Z,25.40
2018-05-12T13:40:38.208Z,25.10
2018-05-12T13:43:04.397Z,25.10
2018-05-12T13:45:31.508Z,25.10
2018-05-12T13:48:00.364Z,24.20
2018-05-12T13:50:26.563Z,24.20
2018-05-12T13:52:52.619Z,24.20
2018-05-12T13:55:19.027Z,24.40
2018-05-12T13:57:45.168Z,24.50
2018-05-12T14:00:12.007Z,24.80
2018-05-12T14:02:38.102Z,24.80
2018-05-12T14:05:04.169Z,24.60
2018-05-12T14:07:30.317Z,24.50
2018-05-12T14:09:56.500Z,24.60
2018-05-12T14:12:22.623Z,24.90
2018-05-12T14:14:50.030Z,25.20
2018-05-12T14:17:16.310Z,25.10
2018-05-12T14:19:42.832Z,25.00
2018-05-12T14:22:09.016Z,24.70
2018-05-12T14:24:35.166Z,24.60
2018-05-12T14:27:03.090Z,24.40
2018-05-12T14:29:30.236Z,24.40
2018-05-12T14:31:57.359Z,24.30
2018-05-12T14:34:26.687Z,24.40
2018-05-12T14:36:52.776Z,23.80
2018-05-12T14:39:19.628Z,23.60
2018-05-12T14:41:46.830Z,23.60
2018-05-12T14:44:13.039Z,23.40
2018-05-12T14:46:40.147Z,23.50
2018-05-12T14:49:06.945Z,23.20
2018-05-12T14:51:34.026Z,23.10
2018-05-12T14:54:00.690Z,22.90
2018-05-12T14:56:26.848Z,22.90
2018-05-12T14:58:52.989Z,23.20
2018-05-12T15:01:19.228Z,23.40
2018-05-12T15:03:48.902Z,23.40
2018-05-12T15:06:15.972Z,22.90
2018-05-12T15:08:42.884Z,22.80
2018-05-12T15:11:09.017Z,22.70
2018-05-12T15:13:35.245Z,22.60
2018-05-12T15:16:02.424Z,22.60
2018-05-12T15:18:32.639Z,22.60
2018-05-12T15:20:58.785Z,22.80
2018-05-12T15:23:24.977Z,22.70
2018-05-12T15:25:51.600Z,22.60
2018-05-12T15:28:18.742Z,22.70
2018-05-12T15:30:45.527Z,23.20
2018-05-12T15:33:11.588Z,23.20
2018-05-12T15:35:38.679Z,23.10
2018-05-12T15:38:04.835Z,23.10
2018-05-12T15:40:31.034Z,22.80
2018-05-12T15:42:57.123Z,22.80
2018-05-12T15:45:23.153Z,22.80
2018-05-12T15:47:51.027Z,21.90
2018-05-12T15:50:17.867Z,21.60
2018-05-12T15:52:44.791Z,21.30
2018-05-12T15:55:11.678Z,21.50
2018-05-12T15:57:37.726Z,21.40
2018-05-12T16:00:03.850Z,21.50
2018-05-12T16:02:29.912Z,21.30
2018-05-12T16:04:55.942Z,21.00
2018-05-12T16:07:22.171Z,21.00
2018-05-12T16:09:49.435Z,21.20
2018-05-12T16:12:16.249Z,21.10
2018-05-12T16:14:42.412Z,21.10
2018-05-12T16:17:09.316Z,21.00
2018-05-12T16:19:35.521Z,21.00
2018-05-12T16:22:02.677Z,20.90
2018-05-12T16:24:28.761Z,20.60
2018-05-12T16:26:55.837Z,20.40
2018-05-12T16:29:21.937Z,20.40
2018-05-12T16:31:53.756Z,20.50
2018-05-12T16:34:21.071Z,20.50
2018-05-12T16:36:49.137Z,20.30
2018-05-12T16:39:15.234Z,20.20
2018-05-12T16:41:41.294Z,20.20
2018-05-12T16:44:07.725Z,20.10
2018-05-12T16:46:33.734Z,20.00
2018-05-12T16:49:03.881Z,19.90
2018-05-12T16:51:31.698Z,19.90
2018-05-12T16:53:58.795Z,19.90
2018-05-12T16:56:32.376Z,20.10
2018-05-12T16:58:59.291Z,19.90
2018-05-12T17:01:26.078Z,20.00
2018-05-12T17:03:57.112Z,19.90
2018-05-12T17:06:24.437Z,19.80
2018-05-12T17:08:51.248Z,19.60
2018-05-12T17:11:18.554Z,19.60
2018-05-12T17:13:45.400Z,19.50
2018-05-12T17:16:12.216Z,19.50
2018-05-12T17:18:38.394Z,19.50
2018-05-12T17:21:04.588Z,19.50
2018-05-12T17:23:31.464Z,19.10
2018-05-12T17:25:58.635Z,19.10
2018-05-12T17:28:24.703Z,19.10
2018-05-12T17:30:51.637Z,19.10
2018-05-12T17:33:20.473Z,19.00
2018-05-12T17:35:47.148Z,18.90
2018-05-12T17:38:14.249Z,18.90
2018-05-12T17:40:40.303Z,18.70
2018-05-12T17:43:07.461Z,18.60
2018-05-12T17:45:41.758Z,18.40
2018-05-12T17:48:07.883Z,18.30
2018-05-12T17:50:33.990Z,18.20
2018-05-12T17:53:01.013Z,18.10
2018-05-12T17:55:27.816Z,17.90
2018-05-12T17:57:54.970Z,17.90
2018-05-12T18:00:21.090Z,17.90
2018-05-12T18:02:47.162Z,17.80
2018-05-12T18:05:13.968Z,17.50
2018-05-12T18:07:41.129Z,17.50
2018-05-12T18:10:07.318Z,17.40
2018-05-12T18:12:33.481Z,17.40
2018-05-12T18:14:59.831Z,17.20
2018-05-12T18:17:25.953Z,17.10
2018-05-12T18:19:51.971Z,17.00
2018-05-12T18:22:19.074Z,17.00
2018-05-12T18:24:45.250Z,17.00
2018-05-12T18:27:12.331Z,16.80
2018-05-12T18:29:39.115Z,16.60
2018-05-12T18:32:05.288Z,16.70
2018-05-12T18:34:32.097Z,16.50
2018-05-12T18:36:58.232Z,16.50
2018-05-12T18:39:24.271Z,16.40
2018-05-12T18:41:51.373Z,16.30
2018-05-12T18:44:17.576Z,16.30
2018-05-12T18:46:44.312Z,16.10
2018-05-12T18:49:11.503Z,16.00
2018-05-12T18:51:37.609Z,16.00
2018-05-12T18:54:03.747Z,15.90
2018-05-12T18:56:29.918Z,15.90
2018-05-12T18:58:56.783Z,15.80
2018-05-12T19:01:23.737Z,15.70
2018-05-12T19:03:50.615Z,15.70
2018-05-12T19:06:16.833Z,15.70
2018-05-12T19:08:43.082Z,15.70
2018-05-12T19:11:09.268Z,15.70
2018-05-12T19:13:35.901Z,15.60
2018-05-12T19:16:04.292Z,15.50
2018-05-12T19:18:31.479Z,15.60
2018-05-12T19:20:59.626Z,15.50
2018-05-12T19:23:25.803Z,15.40
2018-05-12T19:25:51.969Z,15.30
2018-05-12T19:28:18.081Z,15.30
2018-05-12T19:30:44.903Z,15.30
2018-05-12T19:33:11.999Z,15.20
2018-05-12T19:35:39.208Z,15.20
2018-05-12T19:38:06.104Z,15.10
2018-05-12T19:40:33.153Z,15.10
2018-05-12T19:42:59.416Z,15.10
2018-05-12T19:45:25.460Z,15.00
2018-05-12T19:47:52.343Z,14.90
2018-05-12T19:50:18.462Z,15.00
2018-05-12T19:52:44.500Z,14.90
2018-05-12T19:55:10.535Z,14.90
2018-05-12T19:57:36.689Z,14.70
2018-05-12T20:00:02.862Z,14.70
2018-05-12T20:02:28.978Z,14.70
2018-05-12T20:04:59.752Z,14.60
2018-05-12T20:07:25.801Z,14.60
2018-05-12T20:09:53.869Z,14.60
2018-05-12T20:12:20.800Z,14.50
2018-05-12T20:14:47.965Z,14.50
2018-05-12T20:17:17.207Z,14.50
2018-05-12T20:19:46.133Z,14.40
2018-05-12T20:22:13.191Z,14.40
2018-05-12T20:24:39.252Z,14.40
2018-05-12T20:27:05.556Z,14.40
2018-05-12T20:29:31.659Z,14.40
2018-05-12T20:32:00.947Z,14.40
2018-05-12T20:34:27.069Z,14.30
2018-05-12T20:36:53.284Z,14.30
2018-05-12T20:39:19.386Z,14.30
2018-05-12T20:41:45.559Z,14.20
2018-05-12T20:44:12.708Z,14.30
2018-05-12T20:46:39.544Z,14.10
2018-05-12T20:49:05.706Z,14.10
2018-05-12T20:51:31.710Z,14.10
2018-05-12T20:53:57.811Z,14.10
2018-05-12T20:56:23.948Z,14.00
2018-05-12T20:58:52.742Z,14.00
2018-05-12T21:01:18.868Z,14.00
2018-05-12T21:03:47.239Z,14.00
2018-05-12T21:06:13.348Z,14.00
2018-05-12T21:08:41.247Z,13.90
2018-05-12T21:11:08.420Z,13.90
2018-05-12T21:13:37.975Z,13.90
2018-05-12T21:16:05.868Z,13.90
2018-05-12T21:18:33.060Z,13.90
2018-05-12T21:21:01.125Z,14.00
2018-05-12T21:23:29.994Z,14.00
2018-05-12T21:25:59.330Z,14.00
2018-05-12T21:28:25.438Z,14.10
2018-05-12T21:30:51.674Z,14.10
2018-05-12T21:33:17.830Z,14.20
2018-05-12T21:35:44.965Z,14.00
2018-05-12T21:38:11.172Z,14.00
2018-05-12T21:40:37.281Z,14.10
2018-05-12T21:43:03.488Z,14.10
2018-05-12T21:45:29.711Z,14.10
2018-05-12T21:47:58.590Z,14.20
2018-05-12T21:50:26.467Z,14.20
2018-05-12T21:52:53.342Z,14.20
2018-05-12T21:55:21.512Z,15.00
2018-05-12T21:57:47.623Z,14.30
2018-05-12T22:00:13.857Z,14.30
2018-05-12T22:02:41.920Z,14.40
2018-05-12T22:05:08.764Z,14.30
2018-05-12T22:07:35.197Z,14.30
2018-05-12T22:10:03.305Z,14.20
2018-05-12T22:12:29.661Z,14.20
2018-05-12T22:14:55.902Z,14.10
2018-05-12T22:17:22.744Z,14.10
2018-05-12T22:19:48.885Z,14.10
2018-05-12T22:22:15.963Z,14.20
2018-05-12T22:24:43.179Z,14.20
2018-05-12T22:27:11.060Z,14.20
2018-05-12T22:29:38.191Z,14.20
2018-05-12T22:32:05.348Z,14.20
2018-05-12T22:34:33.230Z,14.10
2018-05-12T22:37:00.239Z,14.10
2018-05-12T22:39:27.350Z,14.10
2018-05-12T22:41:53.559Z,14.00
2018-05-12T22:44:20.400Z,14.00
2018-05-12T22:46:49.909Z,13.90
2018-05-12T22:49:17.091Z,14.00
2018-05-12T22:51:43.232Z,14.00
2018-05-12T22:54:09.417Z,14.00
2018-05-12T22:56:37.616Z,14.00
2018-05-12T22:59:03.805Z,14.00
2018-05-12T23:01:30.935Z,14.10
2018-05-12T23:03:57.191Z,14.10
2018-05-12T23:06:23.471Z,14.20
2018-05-12T23:08:51.349Z,14.20
2018-05-12T23:11:17.576Z,14.20
2018-05-12T23:13:43.988Z,14.20
2018-05-12T23:16:11.061Z,14.20
2018-05-12T23:18:37.252Z,14.20
2018-05-12T23:21:03.455Z,14.20
2018-05-12T23:23:31.589Z,14.10
2018-05-12T23:25:58.492Z,14.10
2018-05-12T23:28:26.753Z,14.10
2018-05-12T23:30:54.020Z,14.10
2018-05-12T23:33:21.155Z,14.20
2018-05-12T23:35:48.106Z,14.10
2018-05-12T23:38:14.355Z,14.10
2018-05-12T23:40:42.324Z,14.10
2018-05-12T23:43:09.499Z,14.00
2018-05-12T23:45:35.597Z,14.10
2018-05-12T23:48:01.826Z,14.00
2018-05-12T23:50:27.970Z,13.90
2018-05-12T23:52:54.060Z,13.90
2018-05-12T23:55:21.114Z,13.80
2018-05-12T23:57:48.172Z,13.80
